Terminal Aerodrome Forecast
Issued by NWS

Home | Current Version | Previous Version | Text Only | Print | Product List | Glossary Off
Versions: 1 2 3 4 5 6 7 8 9 10 11 12 13 14 15 16 17 18 19 20 21 22 23 24 25 26 27 28 29 30 31 32 33

000
FTUS43 KLOT 271733
TAFORD
TAF
KORD 271733Z 2718/2824 03015G21KT P6SM SCT040
     FM272200 03013KT P6SM SCT035
     FM280200 02006KT P6SM FEW250
     FM281500 03008KT P6SM SCT030
     FM281800 05011KT P6SM SCT030=

USA.gov is the U.S. government's official web portal to all federal, state and local government web resources and services.